createdAt,value
2022-12-26T00:00:16.866Z,7.70
2022-12-26T00:15:18.958Z,7.90
2022-12-26T00:30:21.026Z,7.90
2022-12-26T00:45:22.933Z,7.90
2022-12-26T01:00:24.924Z,7.90
2022-12-26T01:15:26.975Z,7.70
2022-12-26T01:30:29.319Z,8.00
2022-12-26T01:45:33.095Z,7.90
2022-12-26T02:00:37.652Z,7.80
2022-12-26T02:15:40.794Z,7.80
2022-12-26T02:30:54.564Z,7.80
2022-12-26T02:46:14.978Z,7.90
2022-12-26T03:01:47.090Z,8.00
2022-12-26T03:17:13.849Z,7.80
2022-12-26T03:32:15.788Z,7.80
2022-12-26T03:48:01.232Z,7.90
2022-12-26T04:03:27.793Z,8.00
2022-12-26T04:19:01.149Z,8.20
2022-12-26T04:34:29.050Z,8.40
2022-12-26T04:49:49.585Z,8.70
2022-12-26T05:05:10.213Z,8.90
2022-12-26T05:20:51.452Z,9.10
2022-12-26T05:35:54.152Z,9.30
2022-12-26T05:51:04.083Z,9.40
2022-12-26T06:06:07.285Z,9.40
2022-12-26T06:21:15.201Z,9.40
2022-12-26T06:36:19.946Z,9.80
2022-12-26T06:51:25.398Z,10.10
2022-12-26T07:06:33.723Z,10.30
2022-12-26T07:21:40.319Z,10.40
2022-12-26T07:36:43.061Z,10.40
2022-12-26T07:51:46.061Z,10.30
2022-12-26T08:06:48.012Z,10.20
2022-12-26T08:21:50.124Z,10.30
2022-12-26T08:36:52.616Z,10.30
2022-12-26T08:51:54.573Z,10.30
2022-12-26T09:06:57.008Z,10.20
2022-12-26T09:22:18.211Z,10.50
2022-12-26T09:37:20.343Z,12.00
2022-12-26T09:52:34.522Z,12.80
2022-12-26T10:07:39.299Z,12.70
2022-12-26T10:23:00.068Z,13.70
2022-12-26T10:38:30.951Z,13.00
2022-12-26T10:53:35.067Z,12.80
2022-12-26T11:08:49.361Z,12.60
2022-12-26T11:24:17.175Z,12.40
2022-12-26T11:39:33.546Z,13.10
2022-12-26T11:54:48.026Z,13.40
2022-12-26T12:10:13.999Z,13.00
2022-12-26T12:25:27.720Z,12.90
2022-12-26T12:40:49.318Z,12.80
2022-12-26T12:56:14.240Z,12.70
2022-12-26T13:11:27.612Z,12.50
2022-12-26T13:26:46.896Z,12.50
2022-12-26T13:42:33.589Z,12.60
2022-12-26T13:57:44.241Z,12.60
2022-12-26T14:12:55.380Z,12.50
2022-12-26T14:28:21.739Z,12.30
2022-12-26T14:43:35.961Z,12.20
2022-12-26T14:58:45.803Z,12.10
2022-12-26T15:13:56.642Z,12.10
2022-12-26T15:29:39.844Z,12.00
2022-12-26T15:44:48.292Z,11.90
2022-12-26T16:00:22.432Z,11.90
2022-12-26T16:15:25.257Z,11.70
2022-12-26T16:30:32.731Z,11.70
2022-12-26T16:45:37.598Z,11.70
2022-12-26T17:00:39.798Z,11.10
2022-12-26T17:15:57.143Z,11.00
2022-12-26T17:31:13.780Z,11.00
2022-12-26T17:46:22.284Z,10.80
2022-12-26T18:01:24.355Z,11.00
2022-12-26T18:16:29.699Z,11.00
2022-12-26T18:31:32.137Z,11.00
2022-12-26T18:46:34.580Z,10.80
2022-12-26T19:01:36.670Z,10.80
2022-12-26T19:16:39.060Z,10.70
2022-12-26T19:31:41.618Z,10.30
2022-12-26T19:46:43.619Z,10.20
2022-12-26T20:01:45.898Z,10.10
2022-12-26T20:17:08.795Z,10.10
2022-12-26T20:32:11.521Z,10.00
2022-12-26T20:47:13.491Z,9.90
2022-12-26T21:02:15.783Z,9.60
2022-12-26T21:17:19.313Z,9.80
2022-12-26T21:32:21.358Z,9.80
2022-12-26T21:47:23.352Z,9.70
2022-12-26T22:02:48.266Z,9.70
2022-12-26T22:17:50.442Z,9.80
2022-12-26T22:32:52.409Z,9.80
2022-12-26T22:47:54.531Z,10.10
2022-12-26T23:02:56.729Z,10.20
2022-12-26T23:18:27.242Z,10.30
2022-12-26T23:33:30.401Z,10.10
2022-12-26T23:48:33.830Z,8.90
